Time;durP1;ratioP1;P1;durP2;ratioP2;P2;SDS_P1;SDS_P2;PMS_P1;PMS_P2;Temp;Humidity;BMP_temperature;BMP_pressure;BME280_temperature;BME280_humidity;BME280_pressure;Samples;Min_cycle;Max_cycle;Signal;HPM_P1;HPM_P2
2021/12/02 00:00:12;;;;;;;6.53;0.95;;;3.80;99.90;;;;;;5057285;28;20088;-87
2021/12/02 00:02:38;;;;;;;;;;;3.70;99.90;;;;;;5105767;28;20389;-86
2021/12/02 00:05:05;;;;;;;7.38;1.38;;;3.60;99.90;;;;;;5057330;28;19920;-87
2021/12/02 00:07:31;;;;;;;7.45;1.20;;;3.50;99.90;;;;;;5057313;28;20052;-87
2021/12/02 00:09:57;;;;;;;6.40;0.90;;;3.50;99.90;;;;;;5054642;28;20037;-87
2021/12/02 00:12:22;;;;;;;10.68;1.70;;;3.40;99.90;;;;;;5071297;28;20041;-86
2021/12/02 00:14:49;;;;;;;14.35;1.42;;;3.40;99.90;;;;;;5074596;28;20064;-86
2021/12/02 00:17:24;;;;;;;5.93;1.30;;;3.30;99.90;;;;;;5057840;28;20134;-86
2021/12/02 00:23:05;;;;;;;6.05;1.20;;;3.20;99.90;;;;;;5074821;28;20040;-86
2021/12/02 00:25:31;;;;;;;4.77;0.93;;;3.10;99.90;;;;;;5056117;28;20480;-87
2021/12/02 00:27:59;;;;;;;9.88;1.55;;;3.10;99.90;;;;;;5057587;28;20828;-86
2021/12/02 00:30:26;;;;;;;5.70;1.40;;;3.00;99.90;;;;;;5074019;28;20032;-86
2021/12/02 00:32:55;;;;;;;11.75;1.70;;;3.00;99.90;;;;;;5058080;28;20089;-86
2021/12/02 00:35:22;;;;;;;7.32;1.42;;;2.90;99.90;;;;;;5074216;28;20037;-87
2021/12/02 00:37:49;;;;;;;;;;;2.90;99.90;;;;;;5074782;28;20058;-86
2021/12/02 00:40:14;;;;;;;11.27;1.77;;;2.90;99.90;;;;;;5057106;28;20354;-86
2021/12/02 00:42:42;;;;;;;5.68;1.10;;;2.90;99.90;;;;;;5057748;28;20068;-86
2021/12/02 00:45:08;;;;;;;13.68;2.20;;;2.90;99.90;;;;;;5074280;28;20041;-86
2021/12/02 00:47:36;;;;;;;4.35;1.17;;;2.90;99.90;;;;;;5040892;28;20055;-86
2021/12/02 00:50:03;;;;;;;7.80;1.48;;;3.10;99.90;;;;;;5071456;28;20032;-86
2021/12/02 00:52:30;;;;;;;5.70;1.30;;;3.30;99.90;;;;;;5056857;28;20037;-87
2021/12/02 00:54:57;;;;;;;6.57;1.63;;;3.40;99.90;;;;;;5073524;28;20404;-86
2021/12/02 00:57:23;;;;;;;5.47;1.15;;;3.40;99.90;;;;;;5073822;28;20463;-86
2021/12/02 00:59:49;;;;;;;6.38;1.45;;;3.40;99.90;;;;;;5056347;28;20404;-87
2021/12/02 01:02:16;;;;;;;9.52;1.90;;;3.40;99.90;;;;;;5056352;28;20140;-86
2021/12/02 01:04:42;;;;;;;;;;;3.40;99.90;;;;;;5056955;28;20041;-87
2021/12/02 01:07:08;;;;;;;8.05;1.02;;;3.40;99.90;;;;;;5055579;28;19995;-86
2021/12/02 01:09:34;;;;;;;;;;;3.30;99.90;;;;;;5072326;28;20048;-87
2021/12/02 01:12:01;;;;;;;5.18;1.30;;;3.20;99.90;;;;;;5072088;28;19967;-86
2021/12/02 01:14:27;;;;;;;9.30;1.17;;;3.20;99.90;;;;;;5073105;28;20082;-87
2021/12/02 01:16:53;;;;;;;4.70;0.85;;;3.20;99.90;;;;;;5056727;28;20041;-86
2021/12/02 01:19:19;;;;;;;6.60;1.13;;;3.20;99.90;;;;;;5039728;28;20788;-87
2021/12/02 01:21:49;;;;;;;3.40;0.70;;;3.40;99.90;;;;;;5073607;28;20050;-87
2021/12/02 01:24:18;;;;;;;2.63;0.70;;;3.50;99.90;;;;;;5072955;28;20040;-87
2021/12/02 01:26:54;;;;;;;3.30;0.80;;;3.60;99.90;;;;;;5057466;28;20404;-87
2021/12/02 01:29:22;;;;;;;2.65;0.65;;;3.70;99.90;;;;;;5071818;28;20047;-88
2021/12/02 01:31:52;;;;;;;3.22;0.73;;;3.70;99.90;;;;;;5073873;28;20536;-88
2021/12/02 01:34:22;;;;;;;5.97;1.48;;;3.60;99.90;;;;;;5073484;28;20047;-89
2021/12/02 01:36:51;;;;;;;3.58;0.75;;;3.50;99.90;;;;;;5052019;28;20190;-88
2021/12/02 01:39:17;;;;;;;2.80;0.70;;;3.50;99.90;;;;;;5072846;28;20480;-88
2021/12/02 01:41:45;;;;;;;6.45;0.80;;;3.40;99.90;;;;;;5056522;28;20048;-89
2021/12/02 01:44:13;;;;;;;2.20;0.57;;;3.40;99.90;;;;;;5056278;28;20072;-87
2021/12/02 01:46:41;;;;;;;4.13;0.65;;;3.30;99.90;;;;;;5073493;28;20044;-88
2021/12/02 01:49:09;;;;;;;4.47;0.68;;;3.30;99.90;;;;;;5056816;28;20051;-87
2021/12/02 01:51:47;;;;;;;3.03;0.65;;;3.20;99.90;;;;;;5073472;28;20029;-88
2021/12/02 01:54:16;;;;;;;3.63;0.65;;;3.20;99.90;;;;;;5071639;28;20071;-88
2021/12/02 01:56:48;;;;;;;4.60;0.80;;;3.20;99.90;;;;;;5056974;28;20558;-89
2021/12/02 01:59:23;;;;;;;4.68;0.80;;;3.20;99.90;;;;;;5072917;28;20052;-88
2021/12/02 02:01:52;;;;;;;5.60;0.90;;;3.20;99.90;;;;;;5055476;28;20044;-88
2021/12/02 02:04:20;;;;;;;5.03;0.95;;;3.20;99.90;;;;;;5072909;28;20562;-88
2021/12/02 02:06:57;;;;;;;4.53;0.90;;;3.30;99.90;;;;;;5056641;28;20071;-88
2021/12/02 02:09:34;;;;;;;2.80;0.70;;;3.30;99.90;;;;;;5070973;28;20036;-88
2021/12/02 02:12:10;;;;;;;4.95;1.10;;;3.30;99.90;;;;;;5056093;28;20115;-88
2021/12/02 02:14:36;;;;;;;5.47;1.02;;;3.30;99.90;;;;;;5071220;28;20123;-88
2021/12/02 02:17:26;;;;;;;5.50;0.98;;;3.30;99.90;;;;;;5073193;28;20115;-88
2021/12/02 02:19:52;;;;;;;7.70;1.02;;;3.30;99.90;;;;;;5072388;28;20040;-88
2021/12/02 02:22:23;;;;;;;5.95;1.05;;;3.30;99.90;;;;;;5021452;28;20041;-88
2021/12/02 02:24:50;;;;;;;6.53;0.90;;;3.30;99.90;;;;;;5058130;28;20159;-88
2021/12/02 02:27:16;;;;;;;3.92;0.70;;;3.20;99.90;;;;;;5071996;28;20036;-87
2021/12/02 02:29:42;;;;;;;6.18;0.90;;;3.20;99.90;;;;;;5072943;28;20036;-87
2021/12/02 02:32:09;;;;;;;4.18;0.90;;;3.20;99.90;;;;;;5071938;28;20025;-88
2021/12/02 02:34:35;;;;;;;8.68;1.20;;;3.10;99.90;;;;;;5056222;28;20037;-87
2021/12/02 02:37:04;;;;;;;3.00;0.95;;;3.10;99.90;;;;;;5039414;28;20072;-87
2021/12/02 02:39:31;;;;;;;2.90;0.90;;;3.10;99.90;;;;;;5071676;28;20092;-87
2021/12/02 02:41:59;;;;;;;4.13;0.85;;;3.10;99.90;;;;;;5072283;28;20036;-87
2021/12/02 02:44:27;;;;;;;3.67;0.75;;;3.10;99.90;;;;;;5071251;28;20111;-87
2021/12/02 02:46:53;;;;;;;4.35;0.93;;;3.10;99.90;;;;;;5054013;28;20036;-87
2021/12/02 02:49:19;;;;;;;;;;;3.20;99.90;;;;;;5071169;28;20032;-87
2021/12/02 02:51:46;;;;;;;5.90;1.10;;;3.20;99.90;;;;;;5070920;28;19923;-87
2021/12/02 02:54:14;;;;;;;4.00;0.80;;;3.30;99.90;;;;;;5054385;28;20396;-87
2021/12/02 02:56:51;;;;;;;3.05;0.75;;;3.30;99.90;;;;;;5071501;28;20036;-87
2021/12/02 03:17:31;;;;;;;3.33;0.50;;;3.30;99.90;;;;;;5071408;28;20063;-88
2021/12/02 03:19:58;;;;;;;1.77;0.50;;;3.30;99.90;;;;;;5055454;28;20032;-88
2021/12/02 03:22:24;;;;;;;1.77;0.50;;;3.30;99.90;;;;;;5039007;28;20036;-89
2021/12/02 03:24:50;;;;;;;3.05;0.43;;;3.20;99.90;;;;;;5039395;28;20044;-88
2021/12/02 03:27:16;;;;;;;2.97;0.60;;;3.20;99.90;;;;;;5055560;28;20039;-89
2021/12/02 03:29:42;;;;;;;0.82;0.30;;;3.10;99.90;;;;;;5055755;28;20485;-88
2021/12/02 03:32:08;;;;;;;1.38;0.52;;;4.20;99.90;;;;;;5058689;28;20496;-88
2021/12/02 03:34:36;;;;;;;0.50;0.30;;;2.90;99.90;;;;;;5079025;28;20111;-88
2021/12/02 03:37:02;;;;;;;1.67;0.40;;;2.80;99.90;;;;;;5062686;28;20051;-88
2021/12/02 03:39:28;;;;;;;1.20;0.35;;;2.70;99.90;;;;;;5078969;28;20083;-88
2021/12/02 03:41:55;;;;;;;1.80;0.35;;;2.60;99.90;;;;;;5062559;28;20492;-87
2021/12/02 03:44:22;;;;;;;1.00;0.40;;;2.60;99.90;;;;;;5110507;28;20051;-88
2021/12/02 03:46:49;;;;;;;1.23;0.45;;;3.10;99.90;;;;;;5044803;28;20036;-88
2021/12/02 03:49:14;;;;;;;;;;;2.40;99.90;;;;;;5077779;28;20048;-88
2021/12/02 03:51:40;;;;;;;1.27;0.50;;;3.70;99.90;;;;;;5077771;28;19920;-87
2021/12/02 03:54:06;;;;;;;4.03;0.45;;;3.20;99.90;;;;;;5061349;28;20043;-88
2021/12/02 03:56:33;;;;;;;2.08;0.50;;;2.40;99.90;;;;;;5074473;28;20040;-88
2021/12/02 03:58:59;;;;;;;1.45;0.40;;;2.40;99.90;;;;;;5077441;28;20393;-88
2021/12/02 04:01:25;;;;;;;5.93;0.82;;;2.40;99.90;;;;;;5077986;28;20514;-88
2021/12/02 04:03:51;;;;;;;1.65;0.40;;;2.30;99.90;;;;;;5078598;28;20127;-88
2021/12/02 04:06:17;;;;;;;1.58;0.40;;;2.30;99.90;;;;;;5061651;28;20036;-89
2021/12/02 04:08:50;;;;;;;2.13;0.47;;;2.30;99.90;;;;;;5079118;28;20127;-87
2021/12/02 04:11:38;;;;;;;4.68;0.70;;;2.70;99.90;;;;;;5062745;28;20096;-87
2021/12/02 04:16:58;;;;;;;1.60;0.43;;;2.60;99.90;;;;;;5077669;28;20331;-87
2021/12/02 04:19:23;;;;;;;4.72;0.50;;;2.90;99.90;;;;;;5075264;28;20036;-87
2021/12/02 04:21:50;;;;;;;1.70;0.50;;;2.00;99.90;;;;;;5076748;28;20040;-87
2021/12/02 04:24:16;;;;;;;3.42;0.77;;;2.00;99.90;;;;;;5060211;28;20036;-87
2021/12/02 04:26:44;;;;;;;1.17;0.50;;;1.90;99.90;;;;;;5060366;28;20049;-87
2021/12/02 04:29:11;;;;;;;0.60;0.50;;;1.90;99.90;;;;;;5076942;28;20040;-87
2021/12/02 04:31:40;;;;;;;3.15;0.77;;;1.90;99.90;;;;;;5076393;28;20115;-86
2021/12/02 04:34:06;;;;;;;1.88;0.40;;;1.90;99.90;;;;;;5043745;28;20036;-87
2021/12/02 04:36:32;;;;;;;2.90;0.70;;;3.20;99.90;;;;;;5042965;28;20036;-86
2021/12/02 04:38:57;;;;;;;3.25;0.50;;;2.00;99.90;;;;;;5076812;28;20072;-87
2021/12/02 04:41:23;;;;;;;2.47;0.50;;;2.10;99.90;;;;;;5076282;28;20166;-87
2021/12/02 04:43:49;;;;;;;1.52;0.60;;;3.20;99.90;;;;;;5057137;28;20067;-87
2021/12/02 04:46:15;;;;;;;1.63;0.40;;;2.20;99.90;;;;;;5073382;28;20102;-87
2021/12/02 04:48:41;;;;;;;5.03;1.38;;;2.20;99.90;;;;;;5038064;28;20041;-87
2021/12/02 04:51:06;;;;;;;3.80;0.73;;;2.20;99.90;;;;;;5040169;28;20036;-87
2021/12/02 04:53:32;;;;;;;2.75;0.60;;;2.30;99.90;;;;;;5056095;28;20132;-86
2021/12/02 04:55:58;;;;;;;1.20;0.50;;;2.30;99.90;;;;;;5056773;28;20040;-87
2021/12/02 04:58:24;;;;;;;5.38;0.90;;;3.60;99.90;;;;;;5073785;28;20514;-87
2021/12/02 05:00:51;;;;;;;2.37;0.67;;;2.40;99.90;;;;;;5058290;28;20083;-87
2021/12/02 05:03:17;;;;;;;4.22;1.13;;;3.10;99.90;;;;;;5058326;28;20044;-88
2021/12/02 05:05:42;;;;;;;2.08;0.98;;;3.70;99.90;;;;;;5074140;28;20040;-88
2021/12/02 05:08:08;;;;;;;1.60;0.73;;;2.40;99.90;;;;;;5057545;28;20111;-88
2021/12/02 05:10:34;;;;;;;3.03;0.90;;;2.50;99.90;;;;;;5041936;28;20710;-88
2021/12/02 05:13:00;;;;;;;1.95;0.70;;;2.50;99.90;;;;;;5075005;28;20037;-87
2021/12/02 05:15:26;;;;;;;2.13;0.63;;;2.50;99.90;;;;;;5074572;28;20028;-89
2021/12/02 05:17:52;;;;;;;2.88;0.75;;;2.50;99.90;;;;;;5075615;28;20484;-89
2021/12/02 05:20:18;;;;;;;1.98;0.70;;;2.50;99.90;;;;;;5025812;28;20032;-90
2021/12/02 05:22:43;;;;;;;1.77;0.50;;;3.80;99.90;;;;;;5059341;28;20040;-88
2021/12/02 05:25:09;;;;;;;3.00;0.80;;;3.70;99.90;;;;;;5059257;28;20092;-89
2021/12/02 05:27:35;;;;;;;5.32;0.90;;;2.50;99.90;;;;;;5059132;28;20033;-90
2021/12/02 05:30:02;;;;;;;3.10;0.70;;;2.50;99.90;;;;;;5059181;28;20040;-87
2021/12/02 05:32:30;;;;;;;2.60;0.60;;;2.60;99.90;;;;;;5072890;28;20392;-88
2021/12/02 05:34:57;;;;;;;3.17;1.02;;;2.50;99.90;;;;;;5071310;28;20068;-83
2021/12/02 05:37:23;;;;;;;2.38;0.82;;;3.60;99.90;;;;;;5072574;28;20048;-85
2021/12/02 05:39:49;;;;;;;1.58;0.80;;;2.50;99.90;;;;;;5073158;28;20053;-85
2021/12/02 05:42:15;;;;;;;1.58;0.50;;;2.40;99.90;;;;;;5039526;28;20032;-85
2021/12/02 05:44:41;;;;;;;2.42;0.68;;;2.40;99.90;;;;;;5055868;28;20040;-85
2021/12/02 05:47:07;;;;;;;1.38;0.50;;;2.30;99.90;;;;;;5055847;28;20434;-85
2021/12/02 05:49:33;;;;;;;2.30;0.70;;;2.50;99.90;;;;;;5072814;28;20060;-85
2021/12/02 05:51:58;;;;;;;3.78;0.93;;;2.30;99.90;;;;;;5057069;28;20041;-83
2021/12/02 05:54:24;;;;;;;1.20;0.50;;;2.30;99.90;;;;;;5070744;28;20029;-80
2021/12/02 05:56:50;;;;;;;3.47;0.40;;;2.20;99.90;;;;;;5071624;28;20040;-81
2021/12/02 05:59:15;;;;;;;2.75;0.63;;;3.00;99.90;;;;;;5071274;28;20282;-79
2021/12/02 06:01:42;;;;;;;3.00;0.60;;;2.20;99.90;;;;;;5067886;28;20059;-76
2021/12/02 06:04:11;;;;;;;2.25;0.60;;;2.10;99.90;;;;;;5051758;28;20847;-79
2021/12/02 06:06:37;;;;;;;1.70;0.60;;;2.00;99.90;;;;;;5070528;28;20434;-79
2021/12/02 06:09:05;;;;;;;3.08;0.70;;;2.00;99.90;;;;;;5070232;28;20036;-79
2021/12/02 06:11:31;;;;;;;2.63;0.50;;;2.00;99.90;;;;;;5070495;28;20561;-79
2021/12/02 06:13:57;;;;;;;1.33;0.40;;;2.00;99.90;;;;;;5070560;28;20039;-80
2021/12/02 06:16:23;;;;;;;1.88;0.50;;;2.00;99.90;;;;;;5053931;28;20495;-80
2021/12/02 06:18:48;;;;;;;3.83;0.50;;;2.10;99.90;;;;;;5053638;28;20048;-80
2021/12/02 06:21:14;;;;;;;0.95;0.40;;;2.10;99.90;;;;;;5054203;28;20369;-80
2021/12/02 06:23:41;;;;;;;2.15;0.43;;;2.00;99.90;;;;;;5053984;28;20093;-80
2021/12/02 06:26:10;;;;;;;1.98;0.60;;;2.00;99.90;;;;;;5070722;28;20046;-80
2021/12/02 06:28:36;;;;;;;1.35;0.57;;;2.10;99.90;;;;;;5067691;28;20039;-79
2021/12/02 06:31:02;;;;;;;3.67;0.50;;;2.10;99.90;;;;;;5070755;28;20041;-80
2021/12/02 06:33:30;;;;;;;0.73;0.52;;;2.20;99.90;;;;;;5070007;28;20089;-80
2021/12/02 06:35:55;;;;;;;1.05;0.40;;;2.10;99.90;;;;;;5070665;28;20407;-80
2021/12/02 06:38:21;;;;;;;0.50;0.40;;;2.10;99.90;;;;;;5053574;28;20040;-80
2021/12/02 06:40:47;;;;;;;1.10;0.50;;;2.10;99.90;;;;;;5070184;28;20055;-80
2021/12/02 06:43:16;;;;;;;1.35;0.50;;;2.10;99.90;;;;;;5070409;28;20291;-80
2021/12/02 06:45:43;;;;;;;1.17;0.50;;;2.10;99.90;;;;;;5069856;28;20052;-79
2021/12/02 06:48:08;;;;;;;2.08;0.52;;;2.10;99.90;;;;;;5068117;28;20037;-80
2021/12/02 06:50:36;;;;;;;2.17;0.55;;;2.10;99.90;;;;;;5053032;28;20048;-80
2021/12/02 06:53:02;;;;;;;2.83;0.70;;;2.00;99.90;;;;;;5070181;28;20115;-80
2021/12/02 06:55:28;;;;;;;1.80;0.60;;;2.10;99.90;;;;;;5068234;28;20186;-80
2021/12/02 06:57:54;;;;;;;1.08;0.50;;;2.10;99.90;;;;;;5068034;28;20048;-80
2021/12/02 07:00:21;;;;;;;2.60;0.60;;;2.10;99.90;;;;;;5069514;28;20040;-80
2021/12/02 07:02:48;;;;;;;1.05;0.55;;;2.10;99.90;;;;;;5069545;28;20044;-80
2021/12/02 07:05:15;;;;;;;1.83;0.60;;;2.10;99.90;;;;;;5069481;28;20052;-80
2021/12/02 07:07:42;;;;;;;2.90;0.60;;;2.10;99.90;;;;;;5066255;28;20051;-80
2021/12/02 07:10:13;;;;;;;2.22;0.80;;;2.10;99.90;;;;;;5070047;28;20040;-80
2021/12/02 07:12:42;;;;;;;1.30;0.70;;;2.00;99.90;;;;;;5069295;28;20032;-80
2021/12/02 07:15:20;;;;;;;0.88;0.60;;;2.50;99.90;;;;;;5053095;28;20044;-80
2021/12/02 07:17:50;;;;;;;3.88;0.60;;;2.00;99.90;;;;;;5051977;28;20044;-80
2021/12/02 07:20:17;;;;;;;2.25;0.70;;;2.00;99.90;;;;;;5070443;28;20111;-80
2021/12/02 07:22:43;;;;;;;2.50;0.70;;;1.90;99.90;;;;;;5067073;28;20036;-81
2021/12/02 07:25:09;;;;;;;1.88;0.70;;;1.90;99.90;;;;;;5037032;28;20046;-81
2021/12/02 07:27:35;;;;;;;1.42;0.80;;;1.90;99.90;;;;;;5069296;28;20036;-81
2021/12/02 07:30:03;;;;;;;;;;;1.90;99.90;;;;;;5070658;28;20044;-81
2021/12/02 07:32:36;;;;;;;1.98;0.90;;;1.80;99.90;;;;;;5070177;28;19916;-81
2021/12/02 07:35:07;;;;;;;0.98;0.75;;;1.70;99.90;;;;;;5067898;28;20086;-81
2021/12/02 07:37:34;;;;;;;3.28;1.00;;;1.70;99.90;;;;;;5070054;28;20465;-81
2021/12/02 07:40:00;;;;;;;5.10;1.00;;;1.70;99.90;;;;;;5053590;28;20046;-81
2021/12/02 07:42:26;;;;;;;1.48;0.90;;;2.20;99.90;;;;;;5069862;28;20044;-81
2021/12/02 07:44:53;;;;;;;3.35;1.27;;;2.20;99.90;;;;;;5069009;28;20115;-81
2021/12/02 07:47:19;;;;;;;2.00;0.70;;;1.70;99.90;;;;;;5052707;28;20075;-81
2021/12/02 07:49:48;;;;;;;2.83;0.90;;;2.30;99.90;;;;;;5052457;28;20039;-81
2021/12/02 07:52:17;;;;;;;5.07;1.20;;;3.00;99.90;;;;;;5065190;28;20047;-81
2021/12/02 07:54:44;;;;;;;3.20;1.15;;;1.80;99.90;;;;;;5069242;28;20041;-81
2021/12/02 07:57:14;;;;;;;4.65;1.55;;;1.80;99.90;;;;;;5069775;28;20052;-81
2021/12/02 07:59:41;;;;;;;4.70;1.70;;;2.00;99.90;;;;;;5069245;28;20157;-82
2021/12/02 08:02:13;;;;;;;5.15;1.77;;;1.90;99.90;;;;;;5069696;28;20080;-81
2021/12/02 08:04:39;;;;;;;2.72;1.88;;;1.90;99.90;;;;;;5069231;28;20412;-81
2021/12/02 08:07:05;;;;;;;3.53;2.25;;;2.10;99.90;;;;;;5069296;28;20041;-81
2021/12/02 08:09:31;;;;;;;4.43;1.95;;;2.10;99.90;;;;;;5069639;28;20044;-81
2021/12/02 08:11:59;;;;;;;5.13;2.13;;;2.00;99.90;;;;;;5069053;28;20068;-82
2021/12/02 08:14:25;;;;;;;4.85;2.72;;;3.10;99.90;;;;;;5064735;28;20119;-81
2021/12/02 08:16:50;;;;;;;6.15;2.75;;;2.40;99.90;;;;;;5068899;28;20119;-82
2021/12/02 08:19:16;;;;;;;4.50;2.50;;;3.00;99.90;;;;;;5072513;28;20116;-81
2021/12/02 08:21:45;;;;;;;2.97;1.98;;;3.80;99.90;;;;;;5072954;28;20051;-81
2021/12/02 08:24:11;;;;;;;4.57;1.98;;;4.00;99.90;;;;;;5072841;28;20067;-82
2021/12/02 08:26:37;;;;;;;2.85;1.80;;;4.40;99.90;;;;;;5055597;28;20033;-82
2021/12/02 08:29:04;;;;;;;2.65;1.83;;;4.90;99.90;;;;;;5073218;28;20036;-82
2021/12/02 08:31:30;;;;;;;2.58;1.80;;;4.50;99.90;;;;;;5072433;28;20033;-82
2021/12/02 08:33:56;;;;;;;3.95;1.80;;;5.00;99.90;;;;;;5056091;28;20450;-82
2021/12/02 08:36:24;;;;;;;3.97;1.38;;;5.50;99.90;;;;;;5072554;28;20044;-82
2021/12/02 08:38:50;;;;;;;2.35;1.10;;;5.90;99.90;;;;;;5070279;28;20051;-82
2021/12/02 08:41:19;;;;;;;3.13;1.25;;;6.40;99.90;;;;;;5072809;28;20049;-82
2021/12/02 08:43:46;;;;;;;3.60;1.25;;;5.70;99.90;;;;;;5072710;28;20431;-82
2021/12/02 08:46:12;;;;;;;2.67;0.90;;;5.80;99.90;;;;;;5056126;28;20480;-82
2021/12/02 08:48:38;;;;;;;2.53;0.93;;;6.10;99.90;;;;;;5038888;28;20179;-82
2021/12/02 08:51:04;;;;;;;1.98;1.15;;;6.20;99.90;;;;;;5072608;28;20166;-82
2021/12/02 08:53:29;;;;;;;2.70;0.90;;;6.10;99.90;;;;;;5072113;28;20094;-81
2021/12/02 08:55:55;;;;;;;1.83;1.00;;;5.70;99.90;;;;;;5055324;28;20051;-82
2021/12/02 08:58:21;;;;;;;1.27;0.60;;;5.20;99.90;;;;;;5072011;28;20733;-82
2021/12/02 09:00:47;;;;;;;2.95;0.57;;;4.80;99.90;;;;;;5055009;28;20052;-82
2021/12/02 09:03:15;;;;;;;2.25;0.63;;;4.50;99.90;;;;;;5055857;28;20048;-82
2021/12/02 09:05:41;;;;;;;2.10;0.60;;;4.40;99.90;;;;;;5071639;28;20094;-82
2021/12/02 09:08:07;;;;;;;2.63;0.90;;;4.20;99.90;;;;;;5072210;28;20067;-82
2021/12/02 09:10:34;;;;;;;1.75;0.77;;;4.10;99.90;;;;;;5071918;28;20076;-82
2021/12/02 09:13:07;;;;;;;3.78;0.82;;;4.00;99.90;;;;;;5055639;28;20065;-82
2021/12/02 09:15:33;;;;;;;1.88;1.00;;;3.90;99.90;;;;;;5071536;28;20046;-82
2021/12/02 09:17:59;;;;;;;2.03;0.85;;;3.80;99.90;;;;;;5071699;28;20060;-82
2021/12/02 09:20:24;;;;;;;2.60;1.10;;;3.80;99.90;;;;;;5053055;28;20078;-82
2021/12/02 09:22:50;;;;;;;2.63;1.13;;;3.90;99.90;;;;;;5071345;28;20131;-82
2021/12/02 09:25:17;;;;;;;2.60;1.00;;;4.20;99.90;;;;;;5072184;28;20924;-82
2021/12/02 09:27:43;;;;;;;;;;;5.00;99.90;;;;;;5071584;28;20053;-82
2021/12/02 09:30:09;;;;;;;2.75;1.20;;;5.60;99.90;;;;;;5071270;28;19951;-82
2021/12/02 09:32:36;;;;;;;3.55;0.70;;;5.70;99.90;;;;;;5071509;28;20067;-82
2021/12/02 09:35:02;;;;;;;;;;;5.60;99.90;;;;;;5071615;28;20044;-82
2021/12/02 09:37:28;;;;;;;2.05;0.80;;;5.20;99.90;;;;;;5054716;28;19967;-82
2021/12/02 09:39:54;;;;;;;1.10;0.70;;;5.10;99.90;;;;;;5071538;28;20425;-82
2021/12/02 09:42:20;;;;;;;3.47;0.82;;;5.00;99.90;;;;;;5054617;28;20071;-82
2021/12/02 09:44:48;;;;;;;2.63;1.00;;;5.00;99.90;;;;;;5071326;28;20055;-83
2021/12/02 09:47:16;;;;;;;3.45;0.80;;;4.90;99.90;;;;;;5055084;28;20169;-82
2021/12/02 09:49:42;;;;;;;2.97;0.85;;;5.30;99.90;;;;;;5071173;28;20036;-82
2021/12/02 09:52:12;;;;;;;5.93;0.77;;;5.10;99.90;;;;;;5071507;28;20170;-82
2021/12/02 09:54:42;;;;;;;2.10;0.50;;;6.10;99.90;;;;;;5071274;28;20048;-82
2021/12/02 09:57:13;;;;;;;5.82;0.70;;;6.90;99.90;;;;;;5071495;28;20051;-82
2021/12/02 10:02:15;;;;;;;1.77;0.85;;;6.30;99.90;;;;;;5068664;28;20056;-82
2021/12/02 10:04:44;;;;;;;3.20;0.82;;;5.30;99.90;;;;;;5070999;28;20056;-81
2021/12/02 10:10:01;;;;;;;2.50;0.50;;;4.60;99.90;;;;;;5098042;28;20044;-81
2021/12/02 10:12:29;;;;;;;0.80;0.60;;;3.60;99.90;;;;;;5070547;28;20128;-81
2021/12/02 10:14:58;;;;;;;1.45;0.40;;;3.40;99.90;;;;;;5053865;28;20044;-81
2021/12/02 10:17:34;;;;;;;2.72;0.40;;;3.20;99.90;;;;;;5053856;28;20036;-81
2021/12/02 10:20:37;;;;;;;1.30;0.55;;;3.10;99.90;;;;;;5068146;28;20052;-81
2021/12/02 10:23:37;;;;;;;1.05;0.60;;;3.00;99.90;;;;;;5069622;28;20094;-81
2021/12/02 10:26:05;;;;;;;1.40;0.50;;;3.00;99.90;;;;;;5068085;28;20502;-81
2021/12/02 10:28:37;;;;;;;1.38;0.40;;;3.00;99.90;;;;;;5070234;28;20472;-81
2021/12/02 10:31:06;;;;;;;1.95;0.50;;;3.10;99.90;;;;;;5069899;28;20068;-81
2021/12/02 10:33:40;;;;;;;1.48;0.60;;;3.20;99.90;;;;;;5067992;28;20108;-81
2021/12/02 10:36:20;;;;;;;1.27;0.70;;;3.20;99.90;;;;;;5070345;28;20098;-81
2021/12/02 10:38:46;;;;;;;4.78;0.60;;;3.40;99.90;;;;;;5068961;28;20059;-81
2021/12/02 10:41:18;;;;;;;1.25;0.68;;;3.40;99.90;;;;;;5069876;28;20044;-81
2021/12/02 10:44:02;;;;;;;1.85;0.90;;;4.10;99.90;;;;;;5070032;28;20119;-81
2021/12/02 10:46:28;;;;;;;0.63;0.55;;;3.40;99.90;;;;;;5067711;28;20044;-81
2021/12/02 10:48:54;;;;;;;2.80;0.70;;;3.50;99.90;;;;;;5069894;28;20033;-81
2021/12/02 10:51:50;;;;;;;0.95;0.70;;;3.40;99.90;;;;;;5069944;28;20078;-81
2021/12/02 10:54:21;;;;;;;1.23;0.68;;;3.40;99.90;;;;;;5070110;28;20094;-81
2021/12/02 10:56:56;;;;;;;1.42;0.73;;;3.40;99.90;;;;;;5069824;28;20337;-81
2021/12/02 10:59:31;;;;;;;1.15;0.73;;;3.30;99.90;;;;;;5069264;28;20157;-81
2021/12/02 11:02:03;;;;;;;2.55;0.80;;;4.20;99.90;;;;;;5069484;28;20036;-81
2021/12/02 11:04:37;;;;;;;1.35;0.80;;;3.30;99.90;;;;;;5069735;28;20036;-81
2021/12/02 11:07:09;;;;;;;3.85;0.80;;;3.20;99.90;;;;;;5069216;28;20119;-82
2021/12/02 11:09:35;;;;;;;1.80;1.08;;;3.20;99.90;;;;;;5069895;28;20043;-81
2021/12/02 11:12:14;;;;;;;3.00;1.05;;;3.30;99.90;;;;;;5067838;28;20032;-81
2021/12/02 11:14:51;;;;;;;2.53;1.23;;;3.00;99.90;;;;;;5068414;28;20732;-81
2021/12/02 11:17:17;;;;;;;2.42;1.20;;;3.00;99.90;;;;;;5068511;28;20399;-81
2021/12/02 11:19:48;;;;;;;2.42;0.80;;;2.90;99.90;;;;;;5068409;28;20453;-81
2021/12/02 11:22:18;;;;;;;2.63;0.80;;;3.00;99.90;;;;;;5065998;28;20044;-81
2021/12/02 11:24:45;;;;;;;3.15;0.77;;;3.00;99.90;;;;;;5069014;28;20036;-81
2021/12/02 11:27:45;;;;;;;2.63;0.75;;;3.00;99.90;;;;;;5069414;28;20389;-81
2021/12/02 11:30:23;;;;;;;1.42;0.70;;;3.10;99.90;;;;;;5058438;28;20128;-81
2021/12/02 11:33:01;;;;;;;0.70;0.65;;;3.20;99.90;;;;;;5067519;28;20040;-81
2021/12/02 11:35:33;;;;;;;3.25;0.80;;;3.30;99.90;;;;;;5069431;28;20029;-82
2021/12/02 11:38:09;;;;;;;2.75;0.82;;;3.30;99.90;;;;;;5069254;28;20363;-81
2021/12/02 11:40:44;;;;;;;1.38;0.60;;;3.30;99.90;;;;;;5069454;28;20047;-81
2021/12/02 11:43:12;;;;;;;4.57;0.60;;;3.30;99.90;;;;;;5067817;28;20040;-82
2021/12/02 11:45:48;;;;;;;0.50;0.50;;;3.30;99.90;;;;;;5069091;28;20036;-81
2021/12/02 11:48:16;;;;;;;1.42;1.02;;;3.20;99.90;;;;;;5067305;28;20072;-81
2021/12/02 11:50:43;;;;;;;3.50;1.08;;;3.30;99.90;;;;;;5069199;28;20124;-82
2021/12/02 11:53:09;;;;;;;1.17;0.80;;;3.20;99.90;;;;;;5053840;28;20044;-81
2021/12/02 11:55:40;;;;;;;2.45;0.70;;;3.20;99.90;;;;;;5073462;28;20032;-81
2021/12/02 11:58:06;;;;;;;3.53;0.75;;;3.20;99.90;;;;;;5056555;28;20123;-81
2021/12/02 12:00:33;;;;;;;2.40;0.90;;;3.80;99.90;;;;;;5056345;28;20044;-81
2021/12/02 12:03:00;;;;;;;2.33;0.60;;;3.10;99.90;;;;;;5073049;28;20463;-81
2021/12/02 12:05:31;;;;;;;1.65;0.63;;;3.00;99.90;;;;;;5056477;28;20499;-81
2021/12/02 12:07:57;;;;;;;1.27;0.50;;;3.80;99.90;;;;;;5072909;28;20050;-81
2021/12/02 12:10:30;;;;;;;1.70;0.70;;;3.00;99.90;;;;;;5056654;28;20037;-81
2021/12/02 12:13:23;;;;;;;2.30;0.60;;;2.90;99.90;;;;;;5070909;28;20041;-81
2021/12/02 12:15:58;;;;;;;2.85;1.02;;;3.60;99.90;;;;;;5036016;28;20408;-81
2021/12/02 12:18:24;;;;;;;1.55;0.70;;;4.50;99.90;;;;;;5105477;28;20106;-81
2021/12/02 12:20:59;;;;;;;1.73;0.67;;;4.90;99.90;;;;;;5072881;28;20048;-80
2021/12/02 12:23:34;;;;;;;1.70;0.70;;;5.20;99.90;;;;;;5053904;28;20055;-80
2021/12/02 12:26:36;;;;;;;2.85;0.80;;;5.50;99.90;;;;;;5072152;28;20170;-80
2021/12/02 12:29:05;;;;;;;1.48;0.68;;;6.00;99.90;;;;;;5038663;28;20040;-80
2021/12/02 12:34:51;;;;;;;1.67;0.70;;;5.50;99.90;;;;;;5070123;28;20053;-80
2021/12/02 12:37:22;;;;;;;1.20;0.52;;;4.90;99.90;;;;;;5071217;28;20051;-80
2021/12/02 12:40:10;;;;;;;1.05;0.50;;;4.20;99.90;;;;;;5056203;28;20051;-81
2021/12/02 12:42:42;;;;;;;0.90;0.40;;;4.00;99.90;;;;;;5053727;28;20032;-80
2021/12/02 12:45:10;;;;;;;1.15;0.45;;;3.80;99.90;;;;;;5072300;28;20044;-80
2021/12/02 12:47:49;;;;;;;0.50;0.40;;;3.70;99.90;;;;;;5071989;28;20039;-80
2021/12/02 12:50:25;;;;;;;0.57;0.43;;;3.60;99.90;;;;;;5071796;28;20111;-80
2021/12/02 12:53:06;;;;;;;0.40;0.40;;;3.60;99.90;;;;;;5070004;28;20094;-80
2021/12/02 12:55:38;;;;;;;0.70;0.40;;;3.60;99.90;;;;;;5055381;28;20336;-79
2021/12/02 12:58:17;;;;;;;0.52;0.52;;;3.70;99.90;;;;;;5070384;28;20079;-79
2021/12/02 13:00:51;;;;;;;1.38;0.50;;;3.60;99.90;;;;;;5069569;28;20060;-79
2021/12/02 13:03:22;;;;;;;0.80;0.40;;;3.60;99.90;;;;;;5055281;28;20085;-79
2021/12/02 13:05:55;;;;;;;0.75;0.50;;;3.60;99.90;;;;;;5070700;28;20052;-79
2021/12/02 13:08:29;;;;;;;1.00;0.50;;;3.60;99.90;;;;;;5055246;28;20082;-79
2021/12/02 13:10:57;;;;;;;0.60;0.57;;;3.50;99.90;;;;;;5069679;28;20048;-79
2021/12/02 13:13:27;;;;;;;2.85;0.60;;;3.60;99.90;;;;;;5071637;28;20133;-79
2021/12/02 13:16:07;;;;;;;1.05;0.70;;;3.80;99.90;;;;;;5072035;28;20404;-79
2021/12/02 13:18:36;;;;;;;3.38;1.40;;;3.70;99.90;;;;;;5051561;28;20476;-79
2021/12/02 13:23:58;;;;;;;0.88;0.55;;;3.70;99.90;;;;;;5104240;28;20040;-79
2021/12/02 13:26:30;;;;;;;0.80;0.60;;;3.80;99.90;;;;;;5071324;28;20041;-79
2021/12/02 13:29:00;;;;;;;0.70;0.50;;;3.80;99.90;;;;;;5069260;28;20052;-79
2021/12/02 13:31:28;;;;;;;2.63;0.60;;;3.80;99.90;;;;;;5054702;28;20043;-79
2021/12/02 13:34:01;;;;;;;0.95;0.60;;;3.90;99.90;;;;;;5071168;28;20118;-79
2021/12/02 13:36:45;;;;;;;1.95;0.50;;;3.90;99.90;;;;;;5054469;28;20047;-79
2021/12/02 13:39:33;;;;;;;1.20;0.60;;;4.10;99.90;;;;;;5068450;28;20502;-79
2021/12/02 13:42:00;;;;;;;;;;;4.20;99.90;;;;;;5069225;28;20039;-79
2021/12/02 13:44:35;;;;;;;0.80;0.60;;;4.70;99.90;;;;;;5054820;28;19916;-78